Terminal Aerodrome Forecast
Issued by NWS

Home | Current Version | Previous Version | Text Only | Print | Product List | Glossary On
Versions: 1 2 3 4 5 6 7 8 9 10 11 12 13 14 15 16
000
FTUS43 KABR 150300 AAA
TAFATY
TAF AMD
KATY 150340Z 1504/1524 VRB06KT P6SM VCSH BKN070 OVC100
      TEMPO 1504/1506 -RA
     FM150900 31008KT P6SM BKN250=

USA.gov is the U.S. government's official web portal to all federal, state and local government web resources and services.